Stations météo

réclame
Mon MeteoGroup
Monte S. Angelo, Italie (16258): Température de l'air & dewpoint: 17.01.2019 08:00:00 - 23.01.2019 08:00:00 (CET)Monte S. Angelo, Italie (16258): Vitesse du vent: 17.01.2019 08:00:00 - 23.01.2019 08:00:00 (CET)Monte S. Angelo, Italie (16258): Direction du vent: 17.01.2019 08:00:00 - 23.01.2019 08:00:00 (CET)Monte S. Angelo, Italie (16258): visibility: 17.01.2019 08:00:00 - 23.01.2019 08:00:00 (CET)
Date & Time tt [°C] td [°C] ff [km/h] ff [knt] dd vv [km]
23.01.2019 08:00:00 0,6 -0,9 18 10 SSW 20
23.01.2019 07:00:00 0,6 -1,0 22 12 S 20
23.01.2019 06:00:00 0,4 -1,5 18 10 S 20
23.01.2019 05:00:00 1,0 -1,2 22 12 SSW 20
23.01.2019 04:00:00 0,6 -0,8 21 11 SSW 20
23.01.2019 03:00:00 1,0 -2,9 22 12 SW 20
23.01.2019 02:00:00 1,4 -1,3 31 17 SW 20
23.01.2019 01:00:00 1,2 -1,2 28 15 SSW 20
23.01.2019 00:00:00 1,4 -1,2 26 14 SSW 20
22.01.2019 23:00:00 2,4 -1,0 39 21 SW 20
22.01.2019 22:00:00 1,8 -1,3 31 17 SW 20
22.01.2019 21:00:00 2,2 -1,2 28 15 SW 20
22.01.2019 20:00:00 2,8 -0,3 31 17 SW 20
22.01.2019 19:00:00 2,6 1,1 34 18 SW 15
22.01.2019 18:00:00 3,4 2,7 31 17 SSW 15
22.01.2019 17:00:00 4,0 3,4 28 15 SSW -
22.01.2019 16:00:00 4,0 3,4 16 9 S -
22.01.2019 15:00:00 4,0 3,4 18 10 S -
22.01.2019 14:00:00 4,0 3,3 18 10 S -
22.01.2019 13:00:00 5,0 4,3 13 7 S -
22.01.2019 12:00:00 4,8 4,1 11 6 SSE -
22.01.2019 11:00:00 5,0 4,3 11 6 SSE -
22.01.2019 10:00:00 5,0 4,3 13 7 SSE -
22.01.2019 09:00:00 5,0 4,3 11 6 SSE -
22.01.2019 08:00:00 5,0 4,3 8 4 S -
22.01.2019 07:00:00 5,0 4,3 8 4 SE -
22.01.2019 06:00:00 5,4 4,7 11 6 SSE -
22.01.2019 05:00:00 5,6 4,9 13 7 SSE -
22.01.2019 04:00:00 5,6 4,9 16 9 SE -
22.01.2019 03:00:00 5,4 4,7 16 9 SSE -
22.01.2019 02:00:00 5,4 4,7 11 6 SE -
22.01.2019 01:00:00 5,0 4,3 5 3 ESE -
22.01.2019 00:00:00 5,2 4,5 8 4 S -
21.01.2019 23:00:00 5,0 4,3 5 3 S -
21.01.2019 22:00:00 5,4 4,7 11 6 SSE -
21.01.2019 21:00:00 5,6 4,9 11 6 SE -
21.01.2019 20:00:00 5,8 5,1 9 5 SE -
21.01.2019 19:00:00 5,8 5,1 9 5 SE 10
21.01.2019 18:00:00 5,4 4,4 8 4 E 12
21.01.2019 17:00:00 5,8 3,5 8 4 E 12
21.01.2019 16:00:00 6,4 1,7 5 3 ESE 15
21.01.2019 15:00:00 6,8 2,5 4 2 ENE 15
21.01.2019 14:00:00 7,0 3,8 8 4 SSE 15
21.01.2019 13:00:00 7,6 2,5 8 4 S 15
21.01.2019 12:00:00 6,2 2,1 8 4 SSE 15
21.01.2019 11:00:00 7,6 4,4 4 2 SSE 15
21.01.2019 10:00:00 6,0 1,7 8 4 S 20
21.01.2019 09:00:00 4,8 2,2 8 4 S 20
21.01.2019 08:00:00 4,6 1,4 13 7 SSW 20
21.01.2019 07:00:00 3,8 1,8 11 6 SSW 10
21.01.2019 06:00:00 4,0 2,5 13 7 S 10
21.01.2019 05:00:00 4,0 3,3 13 7 S -
21.01.2019 04:00:00 4,2 3,5 15 8 S -
21.01.2019 03:00:00 4,4 3,7 15 8 SSE -
21.01.2019 02:00:00 4,2 3,3 15 8 SSE -
21.01.2019 01:00:00 4,4 3,7 16 9 SE -
21.01.2019 00:00:00 4,4 3,7 21 11 SE -
20.01.2019 23:00:00 4,2 2,1 16 9 SE -
20.01.2019 22:00:00 4,2 2,2 16 9 SSE 10
20.01.2019 21:00:00 3,6 2,1 11 6 SE 10
20.01.2019 20:00:00 4,0 2,5 11 6 ESE 10
20.01.2019 19:00:00 4,0 1,9 9 5 E 15
20.01.2019 18:00:00 4,2 0,2 8 4 ESE 15
20.01.2019 17:00:00 4,4 -0,6 4 2 SSE 15
20.01.2019 16:00:00 4,4 0,7 5 3 ENE 15
20.01.2019 15:00:00 4,8 0,6 5 3 E 15
20.01.2019 14:00:00 6,0 1,0 8 4 SSE 15
20.01.2019 13:00:00 5,4 0,8 4 2 SSE 15
20.01.2019 12:00:00 6,2 0,1 4 2 S 15
20.01.2019 11:00:00 6,4 1,1 5 3 SE 15
20.01.2019 10:00:00 4,6 0,7 4 2 SSE 15
20.01.2019 09:00:00 3,6 0,5 2 1 NNW 15
20.01.2019 08:00:00 3,4 0,1 11 6 WNW 10
20.01.2019 07:00:00 2,8 0,5 13 7 WNW 10
20.01.2019 06:00:00 3,6 1,5 15 8 NW 10
20.01.2019 05:00:00 3,4 1,3 16 9 NW 10
20.01.2019 04:00:00 3,0 1,2 21 11 NW 10
20.01.2019 03:00:00 3,2 1,7 22 12 WNW 10
20.01.2019 02:00:00 3,2 0,9 15 8 WNW 10
20.01.2019 01:00:00 2,8 -0,7 16 9 W 10
20.01.2019 00:00:00 3,8 -0,2 16 9 W 10
19.01.2019 23:00:00 3,6 1,3 15 8 WSW 10
19.01.2019 22:00:00 3,6 0,1 15 8 SW 10
19.01.2019 21:00:00 4,2 2,4 13 7 SW 10
19.01.2019 20:00:00 4,0 1,5 13 7 SW 10
19.01.2019 19:00:00 4,0 2,4 9 5 SSW 10
19.01.2019 18:00:00 6,0 4,5 16 9 S 10
19.01.2019 17:00:00 6,0 3,7 11 6 SSW 15
19.01.2019 16:00:00 6,6 1,5 8 4 S 15
19.01.2019 15:00:00 7,6 1,4 13 7 SSW 20
19.01.2019 14:00:00 7,2 1,1 15 8 SW 20
19.01.2019 13:00:00 7,6 1,9 13 7 SSW 20
19.01.2019 12:00:00 8,2 2,9 9 5 S 20
19.01.2019 11:00:00 8,6 2,6 9 5 E 20
19.01.2019 10:00:00 7,2 1,1 8 4 SW 20
19.01.2019 09:00:00 6,0 2,5 5 3 SSW 20
19.01.2019 08:00:00 5,6 1,5 8 4 WNW 20
19.01.2019 07:00:00 5,2 1,0 8 4 S 20
19.01.2019 06:00:00 5,2 0,8 8 4 SSW 20
19.01.2019 05:00:00 5,4 1,3 13 7 SW 20
19.01.2019 04:00:00 5,6 1,1 9 5 SW 20
19.01.2019 03:00:00 5,0 0,0 11 6 WNW 20
19.01.2019 02:00:00 5,2 2,0 15 8 WSW 20
19.01.2019 01:00:00 5,4 0,8 18 10 WSW 20
19.01.2019 00:00:00 5,4 1,9 11 6 W 20
18.01.2019 23:00:00 5,4 1,7 22 12 WSW 20
18.01.2019 22:00:00 5,0 1,0 16 9 SW 20
18.01.2019 21:00:00 5,2 1,1 18 10 SW 20
18.01.2019 20:00:00 5,4 1,3 18 10 SSW 20
18.01.2019 19:00:00 5,2 2,0 21 11 S 20
18.01.2019 18:00:00 5,8 3,8 18 10 S 20
18.01.2019 17:00:00 6,0 3,7 11 6 S 20
18.01.2019 16:00:00 6,4 4,2 13 7 S 20
18.01.2019 15:00:00 6,6 3,4 15 8 S 20
18.01.2019 14:00:00 7,2 3,1 11 6 SW 20
18.01.2019 13:00:00 7,6 3,1 21 11 SSW 20
18.01.2019 12:00:00 6,8 2,3 21 11 SSW 20
18.01.2019 11:00:00 5,8 2,3 15 8 SSW 20
18.01.2019 10:00:00 5,4 2,9 15 8 SSW 20
18.01.2019 09:00:00 5,0 3,4 18 10 S 20
18.01.2019 08:00:00 5,0 3,2 26 14 S 20
18.01.2019 07:00:00 4,6 3,9 24 13 S 20
18.01.2019 06:00:00 4,8 4,1 24 13 S 20
18.01.2019 05:00:00 4,6 3,1 22 12 S 20
18.01.2019 04:00:00 4,6 1,8 21 11 S 20
18.01.2019 03:00:00 4,6 1,8 21 11 S 25
18.01.2019 02:00:00 4,8 2,2 21 11 S 20
18.01.2019 01:00:00 4,8 2,7 15 8 S 20
18.01.2019 00:00:00 4,8 2,3 18 10 S 25
17.01.2019 23:00:00 5,4 2,6 22 12 S 20
17.01.2019 22:00:00 5,0 1,7 22 12 S 20
17.01.2019 21:00:00 5,0 0,9 24 13 S 20
17.01.2019 20:00:00 5,0 1,1 11 6 SSE 20
17.01.2019 19:00:00 4,8 1,3 15 8 SE 20
17.01.2019 18:00:00 5,4 2,2 8 4 S 20
17.01.2019 17:00:00 6,0 1,5 11 6 S 20
17.01.2019 16:00:00 7,2 2,5 15 8 S 20
17.01.2019 15:00:00 7,0 1,7 16 9 S 20
17.01.2019 14:00:00 7,2 0,6 15 8 SSW 20
17.01.2019 13:00:00 7,6 -0,1 13 7 SSW 25
17.01.2019 12:00:00 6,8 -0,4 13 7 SW 25
17.01.2019 11:00:00 6,0 -1,6 15 8 WSW 30
17.01.2019 10:00:00 6,0 -2,9 18 10 WSW 30
17.01.2019 09:00:00 4,6 -1,8 9 5 SW 30
17.01.2019 08:00:00 5,0 -3,3 4 2 SSW 30

tt = Température de l'air
td = dewpoint
ff = Vitesse du vent
dd = Direction du vent
vv = visibility

stations d'obs. à proximité